sensor_id;sensor_type;location;lat;lon;timestamp;pressure;altitude;pressure_sealevel;temperature;humidity
40982;BME280;26708;50.304;19.028;2023-07-31T00:01:19;97841.75;;;20.24;60.30
40982;BME280;26708;50.304;19.028;2023-07-31T00:03:38;97670.78;;;19.08;60.23
40982;BME280;26708;50.304;19.028;2023-07-31T00:06:31;97959.41;;;20.78;60.34
40982;BME280;26708;50.304;19.028;2023-07-31T00:09:21;97513.84;;;17.96;60.27
40982;BME280;26708;50.304;19.028;2023-07-31T00:11:54;97756.75;;;19.73;60.42
40982;BME280;26708;50.304;19.028;2023-07-31T00:14:03;97700.09;;;19.40;60.25
40982;BME280;26708;50.304;19.028;2023-07-31T00:16:19;97943.69;;;20.74;60.37
40982;BME280;26708;50.304;19.028;2023-07-31T00:18:26;97730.22;;;19.56;60.45
40982;BME280;26708;50.304;19.028;2023-07-31T00:20:31;97758.53;;;19.73;60.41
40982;BME280;26708;50.304;19.028;2023-07-31T00:22:39;97688.41;;;19.09;60.30
40982;BME280;26708;50.304;19.028;2023-07-31T00:24:45;97750.66;;;19.54;60.64
40982;BME280;26708;50.304;19.028;2023-07-31T00:26:50;97705.94;;;19.30;60.25
40982;BME280;26708;50.304;19.028;2023-07-31T00:28:55;97891.41;;;20.24;60.39
40982;BME280;26708;50.304;19.028;2023-07-31T00:31:03;97547.72;;;18.25;60.30
40982;BME280;26708;50.304;19.028;2023-07-31T00:33:08;97618.09;;;18.49;60.33
40982;BME280;26708;50.304;19.028;2023-07-31T00:35:51;97511.72;;;17.67;60.42
40982;BME280;26708;50.304;19.028;2023-07-31T00:38:23;97851.78;;;19.85;60.69
40982;BME280;26708;50.304;19.028;2023-07-31T00:40:48;97574.94;;;18.10;60.96
40982;BME280;26708;50.304;19.028;2023-07-31T00:44:23;97956.28;;;20.37;60.86
40982;BME280;26708;50.304;19.028;2023-07-31T00:46:49;97945.81;;;20.34;60.74
40982;BME280;26708;50.304;19.028;2023-07-31T00:49:12;97864.22;;;19.85;60.74
40982;BME280;26708;50.304;19.028;2023-07-31T01:05:12;97728.94;;;18.77;60.08
40982;BME280;26708;50.304;19.028;2023-07-31T01:07:47;97600.66;;;17.71;59.99
40982;BME280;26708;50.304;19.028;2023-07-31T01:10:34;97976.84;;;19.99;60.38
40982;BME280;26708;50.304;19.028;2023-07-31T01:13:30;97816.50;;;18.94;60.20
40982;BME280;26708;50.304;19.028;2023-07-31T01:16:44;97650.16;;;17.88;60.15
40982;BME280;26708;50.304;19.028;2023-07-31T01:18:53;97606.44;;;17.61;60.19
40982;BME280;26708;50.304;19.028;2023-07-31T01:22:37;97897.91;;;19.30;60.10
40982;BME280;26708;50.304;19.028;2023-07-31T01:25:56;97741.69;;;18.13;60.18
40982;BME280;26708;50.304;19.028;2023-07-31T01:29:04;97687.53;;;17.82;60.28
40982;BME280;26708;50.304;19.028;2023-07-31T01:34:48;97711.28;;;17.83;60.75
40982;BME280;26708;50.304;19.028;2023-07-31T01:37:33;97983.84;;;19.46;60.90
40982;BME280;26708;50.304;19.028;2023-07-31T01:40:11;97729.00;;;18.01;61.06
40982;BME280;26708;50.304;19.028;2023-07-31T01:43:19;97611.53;;;17.07;61.16
40982;BME280;26708;50.304;19.028;2023-07-31T01:45:46;97553.22;;;16.70;61.16
40982;BME280;26708;50.304;19.028;2023-07-31T01:53:50;97585.84;;;16.69;61.70
40982;BME280;26708;50.304;19.028;2023-07-31T01:56:40;97690.81;;;17.28;61.92
40982;BME280;26708;50.304;19.028;2023-07-31T01:59:30;97914.44;;;18.80;62.05
40982;BME280;26708;50.304;19.028;2023-07-31T02:05:49;97689.34;;;17.21;62.14
40982;BME280;26708;50.304;19.028;2023-07-31T02:07:59;97766.09;;;17.81;62.22
40982;BME280;26708;50.304;19.028;2023-07-31T02:13:33;97757.94;;;17.46;62.50
40982;BME280;26708;50.304;19.028;2023-07-31T02:17:06;97820.47;;;17.90;62.58
40982;BME280;26708;50.304;19.028;2023-07-31T02:20:17;97685.03;;;16.99;62.70
40982;BME280;26708;50.304;19.028;2023-07-31T02:22:56;97592.72;;;16.53;62.63
40982;BME280;26708;50.304;19.028;2023-07-31T02:56:32;98018.66;;;18.82;63.13
40982;BME280;26708;50.304;19.028;2023-07-31T02:59:37;97609.94;;;16.41;63.29
40982;BME280;26708;50.304;19.028;2023-07-31T03:01:56;97830.44;;;17.83;63.19
40982;BME280;26708;50.304;19.028;2023-07-31T03:04:38;97880.94;;;17.79;62.97
40982;BME280;26708;50.304;19.028;2023-07-31T03:07:24;97837.75;;;17.78;62.89
40982;BME280;26708;50.304;19.028;2023-07-31T03:09:33;97841.88;;;17.64;62.94
40982;BME280;26708;50.304;19.028;2023-07-31T03:32:12;97949.53;;;18.26;62.25
40982;BME280;26708;50.304;19.028;2023-07-31T03:37:49;97709.66;;;16.79;62.14
40982;BME280;26708;50.304;19.028;2023-07-31T03:40:37;97738.13;;;16.94;62.13
40982;BME280;26708;50.304;19.028;2023-07-31T04:10:09;97687.84;;;16.74;60.05
40982;BME280;26708;50.304;19.028;2023-07-31T04:18:26;97986.50;;;18.69;60.19
40982;BME280;26708;50.304;19.028;2023-07-31T04:20:41;97913.22;;;18.08;60.03
40982;BME280;26708;50.304;19.028;2023-07-31T04:28:15;97834.50;;;17.50;59.80
40982;BME280;26708;50.304;19.028;2023-07-31T04:36:15;97806.31;;;17.49;59.92
40982;BME280;26708;50.304;19.028;2023-07-31T04:46:42;97831.97;;;17.89;58.72
40982;BME280;26708;50.304;19.028;2023-07-31T04:49:43;97754.22;;;17.50;58.90
40982;BME280;26708;50.304;19.028;2023-07-31T04:54:50;97965.03;;;18.75;58.76
40982;BME280;26708;50.304;19.028;2023-07-31T04:56:55;98015.00;;;19.04;58.63
40982;BME280;26708;50.304;19.028;2023-07-31T04:59:03;97829.09;;;18.13;58.50
40982;BME280;26708;50.304;19.028;2023-07-31T05:01:07;97881.63;;;18.24;58.33
40982;BME280;26708;50.304;19.028;2023-07-31T05:03:13;97836.00;;;18.17;58.07
40982;BME280;26708;50.304;19.028;2023-07-31T05:05:18;97900.19;;;18.44;57.76
40982;BME280;26708;50.304;19.028;2023-07-31T05:07:22;97728.06;;;17.44;57.97
40982;BME280;26708;50.304;19.028;2023-07-31T05:09:25;98001.53;;;19.09;57.77
40982;BME280;26708;50.304;19.028;2023-07-31T05:11:30;97778.28;;;17.65;57.57
40982;BME280;26708;50.304;19.028;2023-07-31T05:13:35;98027.00;;;19.13;57.53
40982;BME280;26708;50.304;19.028;2023-07-31T05:15:43;97849.78;;;18.05;57.56
40982;BME280;26708;50.304;19.028;2023-07-31T05:17:50;97750.94;;;17.65;57.32
40982;BME280;26708;50.304;19.028;2023-07-31T05:19:55;97760.66;;;17.66;57.30
40982;BME280;26708;50.304;19.028;2023-07-31T05:21:58;97976.44;;;18.77;57.41
40982;BME280;26708;50.304;19.028;2023-07-31T05:24:03;97895.03;;;18.41;56.83
40982;BME280;26708;50.304;19.028;2023-07-31T05:26:08;97802.06;;;17.67;57.24
40982;BME280;26708;50.304;19.028;2023-07-31T05:28:14;98108.16;;;19.57;57.35
40982;BME280;26708;50.304;19.028;2023-07-31T05:30:23;97843.53;;;18.06;57.27
40982;BME280;26708;50.304;19.028;2023-07-31T05:32:30;97704.16;;;17.45;56.84
40982;BME280;26708;50.304;19.028;2023-07-31T05:34:36;98087.06;;;19.72;56.78
40982;BME280;26708;50.304;19.028;2023-07-31T05:36:38;97889.72;;;18.41;56.70
40982;BME280;26708;50.304;19.028;2023-07-31T05:38:43;98038.47;;;19.33;56.34
40982;BME280;26708;50.304;19.028;2023-07-31T05:40:49;97867.81;;;18.56;56.29
40982;BME280;26708;50.304;19.028;2023-07-31T05:42:54;98044.34;;;19.58;55.82
40982;BME280;26708;50.304;19.028;2023-07-31T05:44:59;97927.91;;;18.75;55.52
40982;BME280;26708;50.304;19.028;2023-07-31T05:47:02;97845.75;;;18.37;55.37
40982;BME280;26708;50.304;19.028;2023-07-31T05:49:10;97711.28;;;17.83;55.61
40982;BME280;26708;50.304;19.028;2023-07-31T05:51:14;98086.56;;;20.01;55.52
40982;BME280;26708;50.304;19.028;2023-07-31T05:53:20;97997.78;;;19.51;55.43
40982;BME280;26708;50.304;19.028;2023-07-31T05:55:27;97716.84;;;17.77;54.99
40982;BME280;26708;50.304;19.028;2023-07-31T05:57:33;98001.88;;;19.58;54.77
40982;BME280;26708;50.304;19.028;2023-07-31T05:59:39;97860.66;;;18.76;54.56
40982;BME280;26708;50.304;19.028;2023-07-31T06:01:43;97790.53;;;18.26;54.53
40982;BME280;26708;50.304;19.028;2023-07-31T06:03:48;97929.81;;;19.10;54.42
40982;BME280;26708;50.304;19.028;2023-07-31T06:05:56;97877.75;;;18.89;54.14
40982;BME280;26708;50.304;19.028;2023-07-31T06:08:01;97985.88;;;19.60;54.17
40982;BME280;26708;50.304;19.028;2023-07-31T06:10:07;98026.47;;;19.62;54.20
40982;BME280;26708;50.304;19.028;2023-07-31T06:12:13;97978.81;;;19.59;53.82
40982;BME280;26708;50.304;19.028;2023-07-31T06:14:20;97968.41;;;19.54;53.93
40982;BME280;26708;50.304;19.028;2023-07-31T06:16:24;97887.47;;;19.07;53.79
40982;BME280;26708;50.304;19.028;2023-07-31T06:20:56;97934.72;;;19.19;53.48
40982;BME280;26708;50.304;19.028;2023-07-31T06:23:01;97922.72;;;19.29;53.48
40982;BME280;26708;50.304;19.028;2023-07-31T06:25:08;97881.91;;;18.95;53.30
40982;BME280;26708;50.304;19.028;2023-07-31T06:27:13;98066.28;;;20.17;53.12
40982;BME280;26708;50.304;19.028;2023-07-31T06:29:18;97773.34;;;18.35;53.33
40982;BME280;26708;50.304;19.028;2023-07-31T06:31:23;97802.81;;;18.66;53.66
40982;BME280;26708;50.304;19.028;2023-07-31T06:33:29;97871.44;;;18.92;53.59
40982;BME280;26708;50.304;19.028;2023-07-31T06:35:34;97920.84;;;19.31;53.49
40982;BME280;26708;50.304;19.028;2023-07-31T06:37:43;97883.88;;;19.08;53.49
40982;BME280;26708;50.304;19.028;2023-07-31T06:39:47;97878.75;;;19.24;53.20
40982;BME280;26708;50.304;19.028;2023-07-31T06:41:52;98103.66;;;20.49;53.09
40982;BME280;26708;50.304;19.028;2023-07-31T06:43:57;98078.53;;;20.57;53.13
40982;BME280;26708;50.304;19.028;2023-07-31T06:46:04;98000.53;;;20.04;53.32
40982;BME280;26708;50.304;19.028;2023-07-31T06:48:10;98091.81;;;20.73;53.05
40982;BME280;26708;50.304;19.028;2023-07-31T06:50:15;97962.31;;;20.06;52.38
40982;BME280;26708;50.304;19.028;2023-07-31T06:52:20;97915.75;;;19.81;52.39
40982;BME280;26708;50.304;19.028;2023-07-31T06:54:28;98046.28;;;20.63;51.87
40982;BME280;26708;50.304;19.028;2023-07-31T06:56:34;98090.81;;;20.93;51.67
40982;BME280;26708;50.304;19.028;2023-07-31T06:58:39;97992.25;;;20.27;51.42
40982;BME280;26708;50.304;19.028;2023-07-31T07:00:44;97799.38;;;19.36;51.35
40982;BME280;26708;50.304;19.028;2023-07-31T07:02:51;97824.88;;;19.40;51.17
40982;BME280;26708;50.304;19.028;2023-07-31T07:04:55;97902.44;;;19.99;51.27
40982;BME280;26708;50.304;19.028;2023-07-31T07:07:00;97952.13;;;20.48;50.80
40982;BME280;26708;50.304;19.028;2023-07-31T07:09:05;98023.19;;;20.97;50.90
40982;BME280;26708;50.304;19.028;2023-07-31T07:11:29;97815.66;;;19.81;50.36
40982;BME280;26708;50.304;19.028;2023-07-31T07:13:34;97852.09;;;19.96;49.54
40982;BME280;26708;50.304;19.028;2023-07-31T07:15:42;97773.84;;;19.51;49.35
40982;BME280;26708;50.304;19.028;2023-07-31T07:17:47;97800.97;;;19.74;49.04
40982;BME280;26708;50.304;19.028;2023-07-31T07:19:54;97900.44;;;20.37;49.28
40982;BME280;26708;50.304;19.028;2023-07-31T07:22:26;97725.66;;;19.24;48.17
40982;BME280;26708;50.304;19.028;2023-07-31T07:25:06;97883.88;;;20.32;48.26
40982;BME280;26708;50.304;19.028;2023-07-31T07:27:15;97879.41;;;20.32;48.02
40982;BME280;26708;50.304;19.028;2023-07-31T07:29:21;97812.72;;;20.04;47.83
40982;BME280;26708;50.304;19.028;2023-07-31T07:31:27;97977.31;;;20.92;47.92
40982;BME280;26708;50.304;19.028;2023-07-31T07:33:32;97989.72;;;21.08;47.30
40982;BME280;26708;50.304;19.028;2023-07-31T07:35:41;97907.72;;;20.50;47.59
40982;BME280;26708;50.304;19.028;2023-07-31T07:37:48;98059.06;;;21.39;47.84
40982;BME280;26708;50.304;19.028;2023-07-31T07:39:55;98074.41;;;21.67;47.30
40982;BME280;26708;50.304;19.028;2023-07-31T07:42:09;97740.66;;;19.59;47.22
40982;BME280;26708;50.304;19.028;2023-07-31T07:44:43;98091.09;;;21.86;47.27
40982;BME280;26708;50.304;19.028;2023-07-31T07:46:52;97752.75;;;19.82;47.50
40982;BME280;26708;50.304;19.028;2023-07-31T07:50:09;97754.38;;;19.84;47.12
40982;BME280;26708;50.304;19.028;2023-07-31T07:52:22;97905.31;;;20.78;46.61
40982;BME280;26708;50.304;19.028;2023-07-31T07:54:27;97999.06;;;21.32;46.90
40982;BME280;26708;50.304;19.028;2023-07-31T07:56:33;97886.19;;;20.87;47.08
40982;BME280;26708;50.304;19.028;2023-07-31T07:58:41;97922.72;;;21.16;47.60
40982;BME280;26708;50.304;19.028;2023-07-31T08:00:57;98005.81;;;21.70;46.42
40982;BME280;26708;50.304;19.028;2023-07-31T08:03:06;97725.00;;;20.04;45.85
40982;BME280;26708;50.304;19.028;2023-07-31T08:05:58;98109.41;;;22.24;45.92
40982;BME280;26708;50.304;19.028;2023-07-31T08:08:07;97726.91;;;20.18;46.12
40982;BME280;26708;50.304;19.028;2023-07-31T08:10:12;98107.31;;;22.29;46.00
40982;BME280;26708;50.304;19.028;2023-07-31T08:12:16;97855.50;;;20.97;46.30
40982;BME280;26708;50.304;19.028;2023-07-31T08:14:28;98124.53;;;22.39;46.64
40982;BME280;26708;50.304;19.028;2023-07-31T08:21:40;97864.06;;;21.02;44.70
40982;BME280;26708;50.304;19.028;2023-07-31T08:23:58;97878.44;;;20.99;45.26
40982;BME280;26708;50.304;19.028;2023-07-31T08:30:05;97760.19;;;20.25;46.08
40982;BME280;26708;50.304;19.028;2023-07-31T08:32:15;97882.00;;;20.98;45.98
40982;BME280;26708;50.304;19.028;2023-07-31T08:34:23;97827.56;;;20.73;46.58
40982;BME280;26708;50.304;19.028;2023-07-31T08:36:34;98082.38;;;22.15;45.87
40982;BME280;26708;50.304;19.028;2023-07-31T08:38:40;97747.59;;;20.43;46.12
40982;BME280;26708;50.304;19.028;2023-07-31T08:40:48;97928.81;;;21.35;46.75
40982;BME280;26708;50.304;19.028;2023-07-31T08:45:59;97715.53;;;20.31;45.99
40982;BME280;26708;50.304;19.028;2023-07-31T08:51:52;98120.38;;;22.65;44.80
40982;BME280;26708;50.304;19.028;2023-07-31T08:54:25;98013.09;;;22.13;44.91
40982;BME280;26708;50.304;19.028;2023-07-31T08:56:33;97973.31;;;21.95;45.42
40982;BME280;26708;50.304;19.028;2023-07-31T09:12:39;97723.03;;;20.56;42.54
40982;BME280;26708;50.304;19.028;2023-07-31T09:15:11;97725.69;;;20.56;42.16
40982;BME280;26708;50.304;19.028;2023-07-31T09:20:22;97743.13;;;20.76;41.66
40982;BME280;26708;50.304;19.028;2023-07-31T09:23:29;97702.59;;;20.71;41.62
40982;BME280;26708;50.304;19.028;2023-07-31T09:26:29;98100.00;;;23.07;41.78
40982;BME280;26708;50.304;19.028;2023-07-31T09:29:06;97907.47;;;22.11;42.50
40982;BME280;26708;50.304;19.028;2023-07-31T09:31:56;97909.72;;;22.18;42.06
40982;BME280;26708;50.304;19.028;2023-07-31T09:34:15;97744.13;;;21.05;41.94
40982;BME280;26708;50.304;19.028;2023-07-31T09:37:02;97860.16;;;21.85;42.14
40982;BME280;26708;50.304;19.028;2023-07-31T09:39:16;97702.47;;;21.04;42.31
40982;BME280;26708;50.304;19.028;2023-07-31T09:41:53;98077.00;;;23.34;41.48
40982;BME280;26708;50.304;19.028;2023-07-31T09:47:27;98072.66;;;23.47;40.97
40982;BME280;26708;50.304;19.028;2023-07-31T09:50:14;97744.97;;;21.50;39.81
40982;BME280;26708;50.304;19.028;2023-07-31T09:56:00;98063.56;;;23.64;40.23
40982;BME280;26708;50.304;19.028;2023-07-31T10:02:01;98062.97;;;23.73;39.55
40982;BME280;26708;50.304;19.028;2023-07-31T10:07:53;97896.84;;;22.82;38.54
40982;BME280;26708;50.304;19.028;2023-07-31T10:10:17;98057.97;;;23.81;39.11
40982;BME280;26708;50.304;19.028;2023-07-31T10:13:38;97788.81;;;22.18;38.94
40982;BME280;26708;50.304;19.028;2023-07-31T10:16:03;97949.03;;;23.44;38.10
40982;BME280;26708;50.304;19.028;2023-07-31T10:21:15;97957.91;;;23.44;37.41
40982;BME280;26708;50.304;19.028;2023-07-31T10:23:58;97827.38;;;22.70;37.29
40982;BME280;26708;50.304;19.028;2023-07-31T10:26:16;97950.69;;;23.32;37.42
40982;BME280;26708;50.304;19.028;2023-07-31T10:31:35;97972.84;;;23.75;37.31
40982;BME280;26708;50.304;19.028;2023-07-31T10:37:25;97672.53;;;21.87;37.48
40982;BME280;26708;50.304;19.028;2023-07-31T10:39:43;98040.59;;;24.02;36.78
40982;BME280;26708;50.304;19.028;2023-07-31T10:41:48;97868.81;;;23.03;37.06
40982;BME280;26708;50.304;19.028;2023-07-31T10:43:57;97684.03;;;21.74;37.22
40982;BME280;26708;50.304;19.028;2023-07-31T10:46:12;97688.50;;;21.73;37.46
40982;BME280;26708;50.304;19.028;2023-07-31T10:48:33;97648.44;;;21.75;36.93
40982;BME280;26708;50.304;19.028;2023-07-31T10:54:19;98022.97;;;23.85;37.01
40982;BME280;26708;50.304;19.028;2023-07-31T10:56:26;97810.03;;;22.63;37.82
40982;BME280;26708;50.304;19.028;2023-07-31T10:59:00;97929.78;;;23.25;37.17
40982;BME280;26708;50.304;19.028;2023-07-31T11:01:08;97814.59;;;22.61;37.53
40982;BME280;26708;50.304;19.028;2023-07-31T11:03:41;97671.38;;;21.77;36.82
40982;BME280;26708;50.304;19.028;2023-07-31T11:06:00;97615.03;;;21.41;37.28
40982;BME280;26708;50.304;19.028;2023-07-31T11:08:51;97665.28;;;21.75;37.39
40982;BME280;26708;50.304;19.028;2023-07-31T11:13:51;97660.16;;;21.72;37.30
40982;BME280;26708;50.304;19.028;2023-07-31T11:17:04;97842.78;;;22.79;36.60
40982;BME280;26708;50.304;19.028;2023-07-31T11:22:12;97604.38;;;21.41;37.05
40982;BME280;26708;50.304;19.028;2023-07-31T11:24:42;97791.34;;;22.63;36.69
40982;BME280;26708;50.304;19.028;2023-07-31T11:30:58;97615.50;;;21.62;36.75
40982;BME280;26708;50.304;19.028;2023-07-31T11:33:37;97747.50;;;22.39;36.28
40982;BME280;26708;50.304;19.028;2023-07-31T11:36:21;97757.22;;;22.68;35.83
40982;BME280;26708;50.304;19.028;2023-07-31T11:38:52;97982.72;;;24.01;36.65
40982;BME280;26708;50.304;19.028;2023-07-31T11:41:47;97989.38;;;24.08;37.17
40982;BME280;26708;50.304;19.028;2023-07-31T11:45:10;97795.75;;;23.04;36.23
40982;BME280;26708;50.304;19.028;2023-07-31T11:48:01;98001.94;;;24.20;36.77
40982;BME280;26708;50.304;19.028;2023-07-31T11:53:08;97649.31;;;22.17;36.83
40982;BME280;26708;50.304;19.028;2023-07-31T11:55:25;97976.28;;;24.30;36.08
40982;BME280;26708;50.304;19.028;2023-07-31T11:58:07;97609.53;;;22.00;35.85
40982;BME280;26708;50.304;19.028;2023-07-31T12:03:09;97717.19;;;22.68;35.61
40982;BME280;26708;50.304;19.028;2023-07-31T12:05:24;97730.97;;;22.74;35.71
40982;BME280;26708;50.304;19.028;2023-07-31T12:07:46;97765.50;;;23.04;35.41
40982;BME280;26708;50.304;19.028;2023-07-31T12:09:53;97781.34;;;23.07;35.79
40982;BME280;26708;50.304;19.028;2023-07-31T12:12:33;97964.63;;;24.31;35.87
40982;BME280;26708;50.304;19.028;2023-07-31T12:15:13;97779.03;;;23.29;35.99
40982;BME280;26708;50.304;19.028;2023-07-31T12:17:55;97955.97;;;24.40;35.75
40982;BME280;26708;50.304;19.028;2023-07-31T12:20:24;97753.16;;;23.15;35.59
40982;BME280;26708;50.304;19.028;2023-07-31T12:22:33;97602.94;;;22.46;35.89
40982;BME280;26708;50.304;19.028;2023-07-31T12:24:57;97731.78;;;23.29;36.11
40982;BME280;26708;50.304;19.028;2023-07-31T12:27:44;97863.56;;;24.09;35.90
40982;BME280;26708;50.304;19.028;2023-07-31T12:30:29;97736.81;;;23.34;36.24
40982;BME280;26708;50.304;19.028;2023-07-31T12:32:41;97618.63;;;22.65;36.03
40982;BME280;26708;50.304;19.028;2023-07-31T12:34:59;97624.53;;;22.70;35.91
40982;BME280;26708;50.304;19.028;2023-07-31T12:37:15;97757.41;;;23.71;35.95
40982;BME280;26708;50.304;19.028;2023-07-31T12:39:33;97955.53;;;24.72;36.18
40982;BME280;26708;50.304;19.028;2023-07-31T12:41:55;97636.84;;;22.85;36.33
40982;BME280;26708;50.304;19.028;2023-07-31T12:44:04;97976.19;;;24.70;36.31
40982;BME280;26708;50.304;19.028;2023-07-31T12:46:19;97637.53;;;23.01;36.56
40982;BME280;26708;50.304;19.028;2023-07-31T12:51:28;97738.59;;;23.60;35.85
40982;BME280;26708;50.304;19.028;2023-07-31T12:53:39;97845.59;;;24.24;36.03
40982;BME280;26708;50.304;19.028;2023-07-31T12:55:53;97708.22;;;23.48;36.53
40982;BME280;26708;50.304;19.028;2023-07-31T13:01:29;97746.50;;;23.74;35.63
40982;BME280;26708;50.304;19.028;2023-07-31T13:03:45;97549.81;;;22.56;36.20
40982;BME280;26708;50.304;19.028;2023-07-31T13:06:54;97543.19;;;22.49;36.26
40982;BME280;26708;50.304;19.028;2023-07-31T13:09:28;97675.16;;;23.37;35.87
40982;BME280;26708;50.304;19.028;2023-07-31T13:11:33;97567.06;;;22.64;35.89
40982;BME280;26708;50.304;19.028;2023-07-31T13:13:51;97717.31;;;23.58;35.74
40982;BME280;26708;50.304;19.028;2023-07-31T13:16:36;97867.13;;;24.47;35.21
40982;BME280;26708;50.304;19.028;2023-07-31T13:18:48;97634.16;;;23.11;35.39
40982;BME280;26708;50.304;19.028;2023-07-31T13:21:28;97851.50;;;24.29;35.38
40982;BME280;26708;50.304;19.028;2023-07-31T13:23:54;97835.31;;;24.43;35.58
40982;BME280;26708;50.304;19.028;2023-07-31T13:26:06;97544.13;;;22.74;35.90
40982;BME280;26708;50.304;19.028;2023-07-31T13:28:11;97547.78;;;22.86;35.86
40982;BME280;26708;50.304;19.028;2023-07-31T13:30:26;97696.03;;;23.69;35.26
40982;BME280;26708;50.304;19.028;2023-07-31T13:32:44;97711.75;;;23.74;35.43
40982;BME280;26708;50.304;19.028;2023-07-31T13:35:13;97883.84;;;24.88;36.02
40982;BME280;26708;50.304;19.028;2023-07-31T13:37:21;97846.91;;;24.68;35.67
40982;BME280;26708;50.304;19.028;2023-07-31T13:39:26;97866.28;;;24.72;35.51
40982;BME280;26708;50.304;19.028;2023-07-31T13:41:33;97531.03;;;22.96;35.90
40982;BME280;26708;50.304;19.028;2023-07-31T13:43:55;97893.81;;;24.99;35.54
40982;BME280;26708;50.304;19.028;2023-07-31T13:46:42;97636.69;;;23.39;35.41
40982;BME280;26708;50.304;19.028;2023-07-31T13:51:53;97876.34;;;25.06;34.95
40982;BME280;26708;50.304;19.028;2023-07-31T13:53:58;97706.13;;;24.03;35.47
40982;BME280;26708;50.304;19.028;2023-07-31T13:56:04;97691.81;;;23.92;35.37
40982;BME280;26708;50.304;19.028;2023-07-31T13:58:13;97667.09;;;23.88;35.33
40982;BME280;26708;50.304;19.028;2023-07-31T14:00:31;97686.88;;;23.98;34.99
40982;BME280;26708;50.304;19.028;2023-07-31T14:02:39;97589.84;;;23.46;34.39
40982;BME280;26708;50.304;19.028;2023-07-31T14:07:08;97807.78;;;24.78;34.59
40982;BME280;26708;50.304;19.028;2023-07-31T14:09:13;97803.84;;;24.71;34.57
40982;BME280;26708;50.304;19.028;2023-07-31T14:11:19;97830.72;;;24.82;34.84
40982;BME280;26708;50.304;19.028;2023-07-31T14:16:37;97607.81;;;23.44;34.29
40982;BME280;26708;50.304;19.028;2023-07-31T14:19:22;97836.94;;;24.83;34.22
40982;BME280;26708;50.304;19.028;2023-07-31T14:21:29;97836.59;;;24.75;34.55
40982;BME280;26708;50.304;19.028;2023-07-31T14:23:51;97582.13;;;23.17;34.75
40982;BME280;26708;50.304;19.028;2023-07-31T14:26:02;97689.75;;;23.83;34.95
40982;BME280;26708;50.304;19.028;2023-07-31T14:28:52;97795.81;;;24.34;34.56
40982;BME280;26708;50.304;19.028;2023-07-31T14:31:10;97713.84;;;24.08;35.10
40982;BME280;26708;50.304;19.028;2023-07-31T14:33:30;97752.47;;;24.29;34.64
40982;BME280;26708;50.304;19.028;2023-07-31T14:35:35;97675.94;;;23.64;34.63
40982;BME280;26708;50.304;19.028;2023-07-31T14:37:46;97836.53;;;24.51;34.88
40982;BME280;26708;50.304;19.028;2023-07-31T14:39:51;97846.69;;;24.71;35.05
40982;BME280;26708;50.304;19.028;2023-07-31T14:41:55;97707.41;;;23.85;35.11
40982;BME280;26708;50.304;19.028;2023-07-31T14:44:01;97674.75;;;23.55;35.12
40982;BME280;26708;50.304;19.028;2023-07-31T14:46:08;97664.03;;;23.43;35.59
40982;BME280;26708;50.304;19.028;2023-07-31T14:48:13;97874.97;;;24.75;35.78
40982;BME280;26708;50.304;19.028;2023-07-31T14:52:45;97558.25;;;22.89;35.51
40982;BME280;26708;50.304;19.028;2023-07-31T14:54:50;97736.38;;;23.79;35.51
40982;BME280;26708;50.304;19.028;2023-07-31T14:56:53;97656.47;;;23.37;35.51
40982;BME280;26708;50.304;19.028;2023-07-31T14:58:58;97743.91;;;23.86;35.42
40982;BME280;26708;50.304;19.028;2023-07-31T15:01:02;97858.34;;;24.58;35.45
40982;BME280;26708;50.304;19.028;2023-07-31T15:03:08;97686.38;;;23.54;35.87
40982;BME280;26708;50.304;19.028;2023-07-31T15:05:12;97558.44;;;22.73;35.48
40982;BME280;26708;50.304;19.028;2023-07-31T15:07:20;97820.84;;;24.33;35.52
40982;BME280;26708;50.304;19.028;2023-07-31T15:09:25;97803.00;;;24.21;35.75
40982;BME280;26708;50.304;19.028;2023-07-31T15:11:30;97810.91;;;24.22;35.30
40982;BME280;26708;50.304;19.028;2023-07-31T15:13:35;97751.44;;;23.80;35.50
40982;BME280;26708;50.304;19.028;2023-07-31T15:15:43;97821.16;;;24.16;35.29
40982;BME280;26708;50.304;19.028;2023-07-31T15:17:47;97558.69;;;22.83;35.71
40982;BME280;26708;50.304;19.028;2023-07-31T15:19:50;97693.34;;;23.69;35.56
40982;BME280;26708;50.304;19.028;2023-07-31T15:21:56;97838.13;;;24.54;36.02
40982;BME280;26708;50.304;19.028;2023-07-31T15:24:03;97606.81;;;23.20;35.88
40982;BME280;26708;50.304;19.028;2023-07-31T15:26:08;97619.91;;;23.11;35.49
40982;BME280;26708;50.304;19.028;2023-07-31T15:28:13;97752.44;;;24.04;35.81
40982;BME280;26708;50.304;19.028;2023-07-31T15:30:18;97659.47;;;23.57;36.33
40982;BME280;26708;50.304;19.028;2023-07-31T15:32:23;97645.38;;;23.55;35.65
40982;BME280;26708;50.304;19.028;2023-07-31T15:36:52;97463.03;;;22.38;36.33
40982;BME280;26708;50.304;19.028;2023-07-31T15:38:57;97551.66;;;22.82;36.55
40982;BME280;26708;50.304;19.028;2023-07-31T15:41:07;97536.47;;;22.82;36.39
40982;BME280;26708;50.304;19.028;2023-07-31T15:43:11;97819.25;;;24.55;36.05
40982;BME280;26708;50.304;19.028;2023-07-31T15:45:16;97499.50;;;22.64;36.13
40982;BME280;26708;50.304;19.028;2023-07-31T15:47:22;97689.94;;;23.67;36.55
40982;BME280;26708;50.304;19.028;2023-07-31T15:49:28;97546.41;;;22.93;36.44
40982;BME280;26708;50.304;19.028;2023-07-31T15:51:30;97532.41;;;22.77;36.42
40982;BME280;26708;50.304;19.028;2023-07-31T15:53:38;97617.75;;;23.30;36.48
40982;BME280;26708;50.304;19.028;2023-07-31T15:55:45;97611.69;;;23.28;36.76
40982;BME280;26708;50.304;19.028;2023-07-31T15:58:01;97652.28;;;23.58;36.64
40982;BME280;26708;50.304;19.028;2023-07-31T16:00:09;97539.97;;;22.70;36.78
40982;BME280;26708;50.304;19.028;2023-07-31T16:02:21;97420.81;;;22.18;36.96